sensor_id;sensor_type;location;lat;lon;timestamp;temperature;humidity
76855;DHT22;66343;44.588;33.450;2023-01-15T00:00:35;6.52;71.32
76855;DHT22;66343;44.588;33.450;2023-01-15T00:03:23;6.45;71.67
76855;DHT22;66343;44.588;33.450;2023-01-15T00:06:10;6.51;71.59
76855;DHT22;66343;44.588;33.450;2023-01-15T00:09:00;6.58;71.39
76855;DHT22;66343;44.588;33.450;2023-01-15T00:11:46;6.65;71.25
76855;DHT22;66343;44.588;33.450;2023-01-15T00:14:32;6.70;70.93
76855;DHT22;66343;44.588;33.450;2023-01-15T00:17:42;6.74;70.84
76855;DHT22;66343;44.588;33.450;2023-01-15T00:20:25;6.74;70.92
76855;DHT22;66343;44.588;33.450;2023-01-15T00:23:11;6.80;70.86
76855;DHT22;66343;44.588;33.450;2023-01-15T00:26:21;6.84;70.64
76855;DHT22;66343;44.588;33.450;2023-01-15T00:29:31;6.87;70.35
76855;DHT22;66343;44.588;33.450;2023-01-15T00:32:18;6.89;70.48
76855;DHT22;66343;44.588;33.450;2023-01-15T00:35:08;6.88;70.45
76855;DHT22;66343;44.588;33.450;2023-01-15T00:37:52;6.90;70.53
76855;DHT22;66343;44.588;33.450;2023-01-15T00:40:36;6.87;70.44
76855;DHT22;66343;44.588;33.450;2023-01-15T00:43:20;6.86;70.45
76855;DHT22;66343;44.588;33.450;2023-01-15T00:46:06;6.73;70.87
76855;DHT22;66343;44.588;33.450;2023-01-15T00:49:07;6.75;70.87
76855;DHT22;66343;44.588;33.450;2023-01-15T00:51:56;6.69;71.25
76855;DHT22;66343;44.588;33.450;2023-01-15T00:54:42;6.66;71.26
76855;DHT22;66343;44.588;33.450;2023-01-15T00:57:28;6.45;72.11
76855;DHT22;66343;44.588;33.450;2023-01-15T01:00:19;6.55;71.78
76855;DHT22;66343;44.588;33.450;2023-01-15T01:03:04;6.58;71.15
76855;DHT22;66343;44.588;33.450;2023-01-15T01:05:49;6.63;70.85
76855;DHT22;66343;44.588;33.450;2023-01-15T01:08:36;6.64;70.87
76855;DHT22;66343;44.588;33.450;2023-01-15T01:11:23;6.69;70.87
76855;DHT22;66343;44.588;33.450;2023-01-15T01:14:10;6.70;70.56
76855;DHT22;66343;44.588;33.450;2023-01-15T01:17:03;6.78;70.03
76855;DHT22;66343;44.588;33.450;2023-01-15T01:19:56;6.76;70.06
76855;DHT22;66343;44.588;33.450;2023-01-15T01:22:39;6.66;70.28
76855;DHT22;66343;44.588;33.450;2023-01-15T01:25:25;6.60;70.51
76855;DHT22;66343;44.588;33.450;2023-01-15T01:28:11;6.57;70.70
76855;DHT22;66343;44.588;33.450;2023-01-15T01:30:56;6.60;70.59
76855;DHT22;66343;44.588;33.450;2023-01-15T01:33:50;6.64;70.29
76855;DHT22;66343;44.588;33.450;2023-01-15T01:36:35;6.64;70.09
76855;DHT22;66343;44.588;33.450;2023-01-15T01:39:21;6.61;70.08
76855;DHT22;66343;44.588;33.450;2023-01-15T01:42:12;6.54;70.16
76855;DHT22;66343;44.588;33.450;2023-01-15T01:45:18;6.50;69.97
76855;DHT22;66343;44.588;33.450;2023-01-15T01:48:19;6.42;69.87
76855;DHT22;66343;44.588;33.450;2023-01-15T01:51:11;6.30;70.29
76855;DHT22;66343;44.588;33.450;2023-01-15T01:53:55;6.23;70.44
76855;DHT22;66343;44.588;33.450;2023-01-15T01:56:45;6.25;70.27
76855;DHT22;66343;44.588;33.450;2023-01-15T01:59:32;6.29;69.99
76855;DHT22;66343;44.588;33.450;2023-01-15T02:02:22;6.21;69.90
76855;DHT22;66343;44.588;33.450;2023-01-15T02:05:17;6.14;70.02
76855;DHT22;66343;44.588;33.450;2023-01-15T02:08:09;6.09;70.15
76855;DHT22;66343;44.588;33.450;2023-01-15T02:10:57;6.00;70.58
76855;DHT22;66343;44.588;33.450;2023-01-15T02:14:09;6.00;70.63
76855;DHT22;66343;44.588;33.450;2023-01-15T02:17:32;6.04;70.26
76855;DHT22;66343;44.588;33.450;2023-01-15T02:20:15;6.07;70.26
76855;DHT22;66343;44.588;33.450;2023-01-15T02:23:08;6.05;70.20
76855;DHT22;66343;44.588;33.450;2023-01-15T02:28:36;5.97;70.18
76855;DHT22;66343;44.588;33.450;2023-01-15T02:31:35;5.85;70.53
76855;DHT22;66343;44.588;33.450;2023-01-15T02:34:11;5.84;71.09
76855;DHT22;66343;44.588;33.450;2023-01-15T02:36:49;5.85;71.03
76855;DHT22;66343;44.588;33.450;2023-01-15T02:39:27;5.86;70.91
76855;DHT22;66343;44.588;33.450;2023-01-15T02:42:01;5.93;70.85
76855;DHT22;66343;44.588;33.450;2023-01-15T02:44:46;5.94;71.31
76855;DHT22;66343;44.588;33.450;2023-01-15T02:47:23;5.95;71.38
76855;DHT22;66343;44.588;33.450;2023-01-15T02:49:59;5.94;71.60
76855;DHT22;66343;44.588;33.450;2023-01-15T02:52:41;5.94;71.84
76855;DHT22;66343;44.588;33.450;2023-01-15T02:55:21;5.90;72.00
76855;DHT22;66343;44.588;33.450;2023-01-15T02:58:00;5.92;72.02
76855;DHT22;66343;44.588;33.450;2023-01-15T03:00:53;5.96;71.71
76855;DHT22;66343;44.588;33.450;2023-01-15T03:07:26;5.99;71.63
76855;DHT22;66343;44.588;33.450;2023-01-15T03:10:32;6.00;71.53
76855;DHT22;66343;44.588;33.450;2023-01-15T03:13:31;6.05;71.29
76855;DHT22;66343;44.588;33.450;2023-01-15T03:16:28;6.08;71.16
76855;DHT22;66343;44.588;33.450;2023-01-15T03:19:28;6.05;71.26
76855;DHT22;66343;44.588;33.450;2023-01-15T03:22:27;5.99;71.46
76855;DHT22;66343;44.588;33.450;2023-01-15T03:25:20;6.01;70.94
76855;DHT22;66343;44.588;33.450;2023-01-15T03:28:07;5.93;71.15
76855;DHT22;66343;44.588;33.450;2023-01-15T03:30:55;5.89;71.58
76855;DHT22;66343;44.588;33.450;2023-01-15T03:33:44;5.87;71.70
76855;DHT22;66343;44.588;33.450;2023-01-15T03:36:40;5.92;71.70
76855;DHT22;66343;44.588;33.450;2023-01-15T03:39:28;5.92;71.30
76855;DHT22;66343;44.588;33.450;2023-01-15T03:42:48;5.87;71.08
76855;DHT22;66343;44.588;33.450;2023-01-15T03:45:58;5.90;71.38
76855;DHT22;66343;44.588;33.450;2023-01-15T03:48:56;5.91;70.97
76855;DHT22;66343;44.588;33.450;2023-01-15T03:51:50;5.91;70.77
76855;DHT22;66343;44.588;33.450;2023-01-15T03:55:09;5.86;71.23
76855;DHT22;66343;44.588;33.450;2023-01-15T03:58:23;5.80;71.68
76855;DHT22;66343;44.588;33.450;2023-01-15T04:01:15;5.85;71.64
76855;DHT22;66343;44.588;33.450;2023-01-15T04:04:01;5.77;72.20
76855;DHT22;66343;44.588;33.450;2023-01-15T04:06:48;5.80;72.21
76855;DHT22;66343;44.588;33.450;2023-01-15T04:09:43;5.83;72.07
76855;DHT22;66343;44.588;33.450;2023-01-15T04:12:33;5.87;72.09
76855;DHT22;66343;44.588;33.450;2023-01-15T04:15:17;5.83;72.22
76855;DHT22;66343;44.588;33.450;2023-01-15T04:17:48;5.89;71.67
76855;DHT22;66343;44.588;33.450;2023-01-15T04:20:36;5.87;71.63
76855;DHT22;66343;44.588;33.450;2023-01-15T04:23:23;5.89;71.88
76855;DHT22;66343;44.588;33.450;2023-01-15T04:25:55;5.95;71.61
76855;DHT22;66343;44.588;33.450;2023-01-15T04:28:41;5.95;71.68
76855;DHT22;66343;44.588;33.450;2023-01-15T04:31:25;5.89;72.11
76855;DHT22;66343;44.588;33.450;2023-01-15T04:34:16;5.82;72.45
76855;DHT22;66343;44.588;33.450;2023-01-15T04:37:10;5.81;72.54
76855;DHT22;66343;44.588;33.450;2023-01-15T04:40:06;5.81;72.47
76855;DHT22;66343;44.588;33.450;2023-01-15T04:42:52;5.82;72.33
76855;DHT22;66343;44.588;33.450;2023-01-15T04:45:44;5.77;72.48
76855;DHT22;66343;44.588;33.450;2023-01-15T04:48:12;5.64;71.75
76855;DHT22;66343;44.588;33.450;2023-01-15T04:50:45;5.52;70.91
76855;DHT22;66343;44.588;33.450;2023-01-15T04:53:15;5.45;71.12
76855;DHT22;66343;44.588;33.450;2023-01-15T04:55:43;5.50;71.68
76855;DHT22;66343;44.588;33.450;2023-01-15T04:58:11;5.51;71.35
76855;DHT22;66343;44.588;33.450;2023-01-15T05:00:45;5.51;70.90
76855;DHT22;66343;44.588;33.450;2023-01-15T05:03:15;5.50;70.89
76855;DHT22;66343;44.588;33.450;2023-01-15T05:06:09;5.51;70.22
76855;DHT22;66343;44.588;33.450;2023-01-15T05:08:57;5.42;70.56
76855;DHT22;66343;44.588;33.450;2023-01-15T05:11:44;5.43;70.65
76855;DHT22;66343;44.588;33.450;2023-01-15T05:14:27;5.45;70.57
76855;DHT22;66343;44.588;33.450;2023-01-15T05:17:12;5.46;70.57
76855;DHT22;66343;44.588;33.450;2023-01-15T05:20:00;5.45;70.53
76855;DHT22;66343;44.588;33.450;2023-01-15T05:22:54;5.30;70.80
76855;DHT22;66343;44.588;33.450;2023-01-15T05:25:24;5.24;71.26
76855;DHT22;66343;44.588;33.450;2023-01-15T05:28:10;5.23;71.32
76855;DHT22;66343;44.588;33.450;2023-01-15T05:30:48;5.30;70.63
76855;DHT22;66343;44.588;33.450;2023-01-15T05:33:23;5.31;70.53
76855;DHT22;66343;44.588;33.450;2023-01-15T05:36:16;5.38;69.88
76855;DHT22;66343;44.588;33.450;2023-01-15T05:38:53;5.43;69.58
76855;DHT22;66343;44.588;33.450;2023-01-15T05:41:27;5.40;69.31
76855;DHT22;66343;44.588;33.450;2023-01-15T05:44:24;5.35;69.07
76855;DHT22;66343;44.588;33.450;2023-01-15T05:46:58;5.24;69.33
76855;DHT22;66343;44.588;33.450;2023-01-15T05:49:28;5.31;69.26
76855;DHT22;66343;44.588;33.450;2023-01-15T05:52:15;5.36;69.51
76855;DHT22;66343;44.588;33.450;2023-01-15T05:54:44;5.34;69.55
76855;DHT22;66343;44.588;33.450;2023-01-15T05:57:36;5.22;69.53
76855;DHT22;66343;44.588;33.450;2023-01-15T06:00:28;5.23;69.51
76855;DHT22;66343;44.588;33.450;2023-01-15T06:03:12;5.28;69.08
76855;DHT22;66343;44.588;33.450;2023-01-15T06:05:43;5.20;68.91
76855;DHT22;66343;44.588;33.450;2023-01-15T06:08:39;5.25;69.00
76855;DHT22;66343;44.588;33.450;2023-01-15T06:11:27;5.38;68.88
76855;DHT22;66343;44.588;33.450;2023-01-15T06:14:11;5.51;68.20
76855;DHT22;66343;44.588;33.450;2023-01-15T06:16:57;5.53;68.49
76855;DHT22;66343;44.588;33.450;2023-01-15T06:19:44;5.52;69.05
76855;DHT22;66343;44.588;33.450;2023-01-15T06:22:33;5.47;68.56
76855;DHT22;66343;44.588;33.450;2023-01-15T06:25:23;5.36;69.13
76855;DHT22;66343;44.588;33.450;2023-01-15T06:28:17;5.35;69.14
76855;DHT22;66343;44.588;33.450;2023-01-15T06:31:11;5.34;69.33
76855;DHT22;66343;44.588;33.450;2023-01-15T06:33:39;5.49;69.09
76855;DHT22;66343;44.588;33.450;2023-01-15T06:36:15;5.55;69.07
76855;DHT22;66343;44.588;33.450;2023-01-15T06:38:45;5.59;68.05
76855;DHT22;66343;44.588;33.450;2023-01-15T06:41:21;5.50;68.17
76855;DHT22;66343;44.588;33.450;2023-01-15T06:44:18;5.40;68.10
76855;DHT22;66343;44.588;33.450;2023-01-15T06:47:22;5.40;68.73
76855;DHT22;66343;44.588;33.450;2023-01-15T06:50:16;5.50;68.25
76855;DHT22;66343;44.588;33.450;2023-01-15T06:53:08;5.60;67.97
76855;DHT22;66343;44.588;33.450;2023-01-15T06:55:58;5.64;67.60
76855;DHT22;66343;44.588;33.450;2023-01-15T06:58:50;5.64;67.23
76855;DHT22;66343;44.588;33.450;2023-01-15T07:01:40;5.75;67.10
76855;DHT22;66343;44.588;33.450;2023-01-15T07:04:23;5.80;66.62
76855;DHT22;66343;44.588;33.450;2023-01-15T07:07:08;5.77;66.85
76855;DHT22;66343;44.588;33.450;2023-01-15T07:09:54;5.83;66.56
76855;DHT22;66343;44.588;33.450;2023-01-15T07:12:22;5.89;66.27
76855;DHT22;66343;44.588;33.450;2023-01-15T07:14:50;5.86;66.28
76855;DHT22;66343;44.588;33.450;2023-01-15T07:17:18;5.93;66.24
76855;DHT22;66343;44.588;33.450;2023-01-15T07:19:51;5.85;65.98
76855;DHT22;66343;44.588;33.450;2023-01-15T07:22:46;5.71;66.69
76855;DHT22;66343;44.588;33.450;2023-01-15T07:25:50;5.81;66.20
76855;DHT22;66343;44.588;33.450;2023-01-15T07:28:48;5.85;65.98
76855;DHT22;66343;44.588;33.450;2023-01-15T07:31:31;5.89;65.74
76855;DHT22;66343;44.588;33.450;2023-01-15T07:34:17;5.94;65.78
76855;DHT22;66343;44.588;33.450;2023-01-15T07:37:00;5.90;65.84
76855;DHT22;66343;44.588;33.450;2023-01-15T07:39:44;5.83;65.23
76855;DHT22;66343;44.588;33.450;2023-01-15T07:42:27;5.80;65.51
76855;DHT22;66343;44.588;33.450;2023-01-15T07:45:38;5.89;65.41
76855;DHT22;66343;44.588;33.450;2023-01-15T07:48:33;5.90;65.49
76855;DHT22;66343;44.588;33.450;2023-01-15T07:51:19;5.98;65.18
76855;DHT22;66343;44.588;33.450;2023-01-15T07:53:47;6.04;65.40
76855;DHT22;66343;44.588;33.450;2023-01-15T07:56:35;6.09;65.01
76855;DHT22;66343;44.588;33.450;2023-01-15T07:59:26;6.13;64.64
76855;DHT22;66343;44.588;33.450;2023-01-15T08:02:17;6.21;64.86
76855;DHT22;66343;44.588;33.450;2023-01-15T08:05:08;6.25;64.61
76855;DHT22;66343;44.588;33.450;2023-01-15T08:07:40;6.30;64.68
76855;DHT22;66343;44.588;33.450;2023-01-15T08:10:33;6.27;64.47
76855;DHT22;66343;44.588;33.450;2023-01-15T08:13:39;6.19;64.60
76855;DHT22;66343;44.588;33.450;2023-01-15T08:16:51;6.22;64.59
76855;DHT22;66343;44.588;33.450;2023-01-15T08:19:25;6.33;64.26
76855;DHT22;66343;44.588;33.450;2023-01-15T08:22:11;6.27;64.24
76855;DHT22;66343;44.588;33.450;2023-01-15T08:25:13;6.31;64.23
76855;DHT22;66343;44.588;33.450;2023-01-15T08:27:59;6.38;63.97
76855;DHT22;66343;44.588;33.450;2023-01-15T08:30:54;6.45;63.71
76855;DHT22;66343;44.588;33.450;2023-01-15T08:33:44;6.50;63.53
76855;DHT22;66343;44.588;33.450;2023-01-15T08:36:27;6.46;63.89
76855;DHT22;66343;44.588;33.450;2023-01-15T08:39:17;6.54;63.69
76855;DHT22;66343;44.588;33.450;2023-01-15T08:42:01;6.64;63.44
76855;DHT22;66343;44.588;33.450;2023-01-15T08:44:47;6.67;63.50
76855;DHT22;66343;44.588;33.450;2023-01-15T08:47:33;6.72;63.37
76855;DHT22;66343;44.588;33.450;2023-01-15T08:50:21;6.69;63.16
76855;DHT22;66343;44.588;33.450;2023-01-15T08:53:14;6.69;63.19
76855;DHT22;66343;44.588;33.450;2023-01-15T08:56:02;6.56;63.36
76855;DHT22;66343;44.588;33.450;2023-01-15T08:58:50;6.55;63.69
76855;DHT22;66343;44.588;33.450;2023-01-15T09:01:40;6.60;63.59
76855;DHT22;66343;44.588;33.450;2023-01-15T09:04:25;6.58;62.96
76855;DHT22;66343;44.588;33.450;2023-01-15T09:07:24;6.51;62.87
76855;DHT22;66343;44.588;33.450;2023-01-15T09:09:57;6.51;62.66
76855;DHT22;66343;44.588;33.450;2023-01-15T09:12:25;6.57;62.79
76855;DHT22;66343;44.588;33.450;2023-01-15T09:14:55;6.73;62.48
76855;DHT22;66343;44.588;33.450;2023-01-15T09:17:33;6.87;61.60
76855;DHT22;66343;44.588;33.450;2023-01-15T09:20:10;6.99;61.40
76855;DHT22;66343;44.588;33.450;2023-01-15T09:22:56;7.11;61.18
76855;DHT22;66343;44.588;33.450;2023-01-15T09:26:01;7.27;60.25
76855;DHT22;66343;44.588;33.450;2023-01-15T09:28:33;7.28;60.61
76855;DHT22;66343;44.588;33.450;2023-01-15T09:31:01;7.28;60.56
76855;DHT22;66343;44.588;33.450;2023-01-15T09:33:31;7.33;60.87
76855;DHT22;66343;44.588;33.450;2023-01-15T09:36:01;7.42;60.60
76855;DHT22;66343;44.588;33.450;2023-01-15T09:38:34;7.54;60.43
76855;DHT22;66343;44.588;33.450;2023-01-15T09:41:28;7.69;59.96
76855;DHT22;66343;44.588;33.450;2023-01-15T09:45:10;7.81;59.48
76855;DHT22;66343;44.588;33.450;2023-01-15T09:48:54;7.81;59.51
76855;DHT22;66343;44.588;33.450;2023-01-15T09:55:24;7.89;59.19
76855;DHT22;66343;44.588;33.450;2023-01-15T09:58:20;8.00;58.77
76855;DHT22;66343;44.588;33.450;2023-01-15T10:01:15;8.05;58.81
76855;DHT22;66343;44.588;33.450;2023-01-15T10:04:33;7.98;58.64
76855;DHT22;66343;44.588;33.450;2023-01-15T10:07:28;8.05;58.78
76855;DHT22;66343;44.588;33.450;2023-01-15T10:10:22;8.20;58.28
76855;DHT22;66343;44.588;33.450;2023-01-15T10:16:08;8.51;57.55
76855;DHT22;66343;44.588;33.450;2023-01-15T10:18:45;8.53;57.18
76855;DHT22;66343;44.588;33.450;2023-01-15T10:21:57;8.52;57.77
76855;DHT22;66343;44.588;33.450;2023-01-15T10:24:26;8.65;57.96
76855;DHT22;66343;44.588;33.450;2023-01-15T10:27:25;8.62;58.15
76855;DHT22;66343;44.588;33.450;2023-01-15T10:30:20;8.72;58.44
76855;DHT22;66343;44.588;33.450;2023-01-15T10:42:42;9.27;57.51
76855;DHT22;66343;44.588;33.450;2023-01-15T10:45:30;9.30;55.93
76855;DHT22;66343;44.588;33.450;2023-01-15T10:48:58;9.41;56.34
76855;DHT22;66343;44.588;33.450;2023-01-15T10:51:57;9.34;56.41
76855;DHT22;66343;44.588;33.450;2023-01-15T10:54:38;9.59;57.02
76855;DHT22;66343;44.588;33.450;2023-01-15T11:00:13;10.89;49.63
76855;DHT22;66343;44.588;33.450;2023-01-15T11:03:04;12.43;45.71
76855;DHT22;66343;44.588;33.450;2023-01-15T11:06:01;13.37;42.17
76855;DHT22;66343;44.588;33.450;2023-01-15T11:08:57;14.27;40.16
76855;DHT22;66343;44.588;33.450;2023-01-15T11:11:50;14.91;38.30
76855;DHT22;66343;44.588;33.450;2023-01-15T11:14:52;16.20;35.76
76855;DHT22;66343;44.588;33.450;2023-01-15T11:18:13;16.87;33.32
76855;DHT22;66343;44.588;33.450;2023-01-15T11:21:27;17.61;32.03
76855;DHT22;66343;44.588;33.450;2023-01-15T11:24:20;17.82;31.70
76855;DHT22;66343;44.588;33.450;2023-01-15T11:27:07;18.99;29.29
76855;DHT22;66343;44.588;33.450;2023-01-15T11:30:00;18.59;29.68
76855;DHT22;66343;44.588;33.450;2023-01-15T11:32:54;18.19;30.10
76855;DHT22;66343;44.588;33.450;2023-01-15T11:35:53;18.52;29.64
76855;DHT22;66343;44.588;33.450;2023-01-15T11:38:45;18.42;29.43
76855;DHT22;66343;44.588;33.450;2023-01-15T11:41:34;16.65;33.38
76855;DHT22;66343;44.588;33.450;2023-01-15T11:44:59;15.08;36.87
76855;DHT22;66343;44.588;33.450;2023-01-15T11:48:06;14.00;39.39
76855;DHT22;66343;44.588;33.450;2023-01-15T11:51:28;13.73;40.52
76855;DHT22;66343;44.588;33.450;2023-01-15T11:54:19;14.45;39.05
76855;DHT22;66343;44.588;33.450;2023-01-15T11:57:04;13.89;39.70
76855;DHT22;66343;44.588;33.450;2023-01-15T11:59:58;14.22;39.31
76855;DHT22;66343;44.588;33.450;2023-01-15T12:02:45;15.93;35.38
76855;DHT22;66343;44.588;33.450;2023-01-15T12:06:03;17.29;32.33
76855;DHT22;66343;44.588;33.450;2023-01-15T12:08:55;17.68;32.04
76855;DHT22;66343;44.588;33.450;2023-01-15T12:23:41;20.29;27.74
76855;DHT22;66343;44.588;33.450;2023-01-15T12:29:57;19.37;27.29
76855;DHT22;66343;44.588;33.450;2023-01-15T12:32:51;16.81;32.31
76855;DHT22;66343;44.588;33.450;2023-01-15T12:35:31;15.80;34.94
76855;DHT22;66343;44.588;33.450;2023-01-15T12:38:11;15.17;36.30
76855;DHT22;66343;44.588;33.450;2023-01-15T12:40:48;13.32;40.58
76855;DHT22;66343;44.588;33.450;2023-01-15T12:43:25;12.81;42.03
76855;DHT22;66343;44.588;33.450;2023-01-15T12:46:25;12.04;44.43
76855;DHT22;66343;44.588;33.450;2023-01-15T12:54:11;10.36;50.00
76855;DHT22;66343;44.588;33.450;2023-01-15T12:56:59;10.07;51.00
76855;DHT22;66343;44.588;33.450;2023-01-15T13:00:03;9.61;52.33
76855;DHT22;66343;44.588;33.450;2023-01-15T13:06:10;9.10;54.05
76855;DHT22;66343;44.588;33.450;2023-01-15T13:09:17;8.85;55.25
76855;DHT22;66343;44.588;33.450;2023-01-15T13:12:13;8.76;55.83
76855;DHT22;66343;44.588;33.450;2023-01-15T13:15:01;8.67;55.63
76855;DHT22;66343;44.588;33.450;2023-01-15T13:21:04;8.51;56.19
76855;DHT22;66343;44.588;33.450;2023-01-15T13:27:24;8.38;56.87
76855;DHT22;66343;44.588;33.450;2023-01-15T13:33:42;8.26;56.92
76855;DHT22;66343;44.588;33.450;2023-01-15T13:36:40;8.11;58.09
76855;DHT22;66343;44.588;33.450;2023-01-15T13:39:41;8.04;58.31
76855;DHT22;66343;44.588;33.450;2023-01-15T13:42:23;8.02;57.62
76855;DHT22;66343;44.588;33.450;2023-01-15T13:45:26;7.90;58.45
76855;DHT22;66343;44.588;33.450;2023-01-15T13:51:29;7.90;58.51
76855;DHT22;66343;44.588;33.450;2023-01-15T13:54:21;7.88;58.00
76855;DHT22;66343;44.588;33.450;2023-01-15T13:56:53;7.77;58.68
76855;DHT22;66343;44.588;33.450;2023-01-15T13:59:41;7.67;59.54
76855;DHT22;66343;44.588;33.450;2023-01-15T14:02:36;7.59;60.27
76855;DHT22;66343;44.588;33.450;2023-01-15T14:05:29;7.53;60.66
76855;DHT22;66343;44.588;33.450;2023-01-15T14:07:59;7.57;60.65
76855;DHT22;66343;44.588;33.450;2023-01-15T14:10:36;7.54;60.76
76855;DHT22;66343;44.588;33.450;2023-01-15T14:13:39;7.48;61.12
76855;DHT22;66343;44.588;33.450;2023-01-15T14:16:47;7.50;61.56
76855;DHT22;66343;44.588;33.450;2023-01-15T14:30:18;7.53;60.97
76855;DHT22;66343;44.588;33.450;2023-01-15T14:33:27;7.50;61.21
76855;DHT22;66343;44.588;33.450;2023-01-15T14:36:19;7.50;61.41
76855;DHT22;66343;44.588;33.450;2023-01-15T14:45:31;7.43;60.98
76855;DHT22;66343;44.588;33.450;2023-01-15T14:51:35;7.49;60.14
76855;DHT22;66343;44.588;33.450;2023-01-15T14:54:37;7.47;60.54
76855;DHT22;66343;44.588;33.450;2023-01-15T14:57:07;7.55;60.39
76855;DHT22;66343;44.588;33.450;2023-01-15T14:59:57;7.55;60.28
76855;DHT22;66343;44.588;33.450;2023-01-15T15:02:47;7.54;60.02
76855;DHT22;66343;44.588;33.450;2023-01-15T15:05:33;7.54;59.58
76855;DHT22;66343;44.588;33.450;2023-01-15T15:08:20;7.50;59.71
76855;DHT22;66343;44.588;33.450;2023-01-15T15:11:20;7.42;59.68
76855;DHT22;66343;44.588;33.450;2023-01-15T15:14:28;7.39;60.12
76855;DHT22;66343;44.588;33.450;2023-01-15T15:17:24;7.46;59.85
76855;DHT22;66343;44.588;33.450;2023-01-15T15:20:06;7.57;59.48
76855;DHT22;66343;44.588;33.450;2023-01-15T15:22:40;7.70;58.67
76855;DHT22;66343;44.588;33.450;2023-01-15T15:25:31;7.60;59.22
76855;DHT22;66343;44.588;33.450;2023-01-15T15:28:28;7.59;59.12
76855;DHT22;66343;44.588;33.450;2023-01-15T15:31:22;7.74;58.29
76855;DHT22;66343;44.588;33.450;2023-01-15T15:34:27;7.86;57.90
76855;DHT22;66343;44.588;33.450;2023-01-15T15:36:57;7.88;57.53
76855;DHT22;66343;44.588;33.450;2023-01-15T15:45:38;8.02;57.76
76855;DHT22;66343;44.588;33.450;2023-01-15T15:48:47;8.12;57.22
76855;DHT22;66343;44.588;33.450;2023-01-15T15:51:38;8.06;57.29
76855;DHT22;66343;44.588;33.450;2023-01-15T15:54:30;8.09;57.29
76855;DHT22;66343;44.588;33.450;2023-01-15T15:57:17;7.96;62.42
76855;DHT22;66343;44.588;33.450;2023-01-15T16:00:19;7.86;63.57
76855;DHT22;66343;44.588;33.450;2023-01-15T16:03:27;7.76;64.34
76855;DHT22;66343;44.588;33.450;2023-01-15T16:06:20;7.67;64.92
76855;DHT22;66343;44.588;33.450;2023-01-15T16:09:11;7.67;64.91
76855;DHT22;66343;44.588;33.450;2023-01-15T16:11:58;7.64;65.07
76855;DHT22;66343;44.588;33.450;2023-01-15T16:14:53;7.55;65.54
76855;DHT22;66343;44.588;33.450;2023-01-15T16:17:43;7.48;65.78
76855;DHT22;66343;44.588;33.450;2023-01-15T16:20:28;7.46;65.76
76855;DHT22;66343;44.588;33.450;2023-01-15T16:23:29;7.53;65.90
76855;DHT22;66343;44.588;33.450;2023-01-15T16:26:37;7.55;65.85
76855;DHT22;66343;44.588;33.450;2023-01-15T16:29:30;7.58;65.60
76855;DHT22;66343;44.588;33.450;2023-01-15T16:32:32;7.59;65.88
76855;DHT22;66343;44.588;33.450;2023-01-15T16:35:32;7.54;65.95
76855;DHT22;66343;44.588;33.450;2023-01-15T16:38:25;7.56;65.64
76855;DHT22;66343;44.588;33.450;2023-01-15T16:41:38;7.56;65.29
76855;DHT22;66343;44.588;33.450;2023-01-15T16:44:25;7.47;65.05
76855;DHT22;66343;44.588;33.450;2023-01-15T16:47:24;7.46;64.92
76855;DHT22;66343;44.588;33.450;2023-01-15T16:53:05;7.54;64.62
76855;DHT22;66343;44.588;33.450;2023-01-15T16:55:56;7.57;64.29
76855;DHT22;66343;44.588;33.450;2023-01-15T16:58:39;7.63;63.82
76855;DHT22;66343;44.588;33.450;2023-01-15T17:04:30;7.71;63.52
76855;DHT22;66343;44.588;33.450;2023-01-15T17:09:39;7.84;63.28
76855;DHT22;66343;44.588;33.450;2023-01-15T17:14:46;7.84;62.66
76855;DHT22;66343;44.588;33.450;2023-01-15T17:17:41;7.88;62.73
76855;DHT22;66343;44.588;33.450;2023-01-15T17:20:32;7.89;62.89
76855;DHT22;66343;44.588;33.450;2023-01-15T17:23:07;7.88;62.57
76855;DHT22;66343;44.588;33.450;2023-01-15T17:25:49;7.93;62.47
76855;DHT22;66343;44.588;33.450;2023-01-15T17:28:22;7.92;62.63
76855;DHT22;66343;44.588;33.450;2023-01-15T17:31:00;7.92;62.37
76855;DHT22;66343;44.588;33.450;2023-01-15T17:33:30;7.92;62.06
76855;DHT22;66343;44.588;33.450;2023-01-15T17:36:01;7.91;62.16
76855;DHT22;66343;44.588;33.450;2023-01-15T17:38:54;7.85;62.47
76855;DHT22;66343;44.588;33.450;2023-01-15T17:41:47;7.78;62.75
76855;DHT22;66343;44.588;33.450;2023-01-15T17:44:38;7.83;62.45
76855;DHT22;66343;44.588;33.450;2023-01-15T17:47:28;7.76;62.25
76855;DHT22;66343;44.588;33.450;2023-01-15T17:50:24;7.77;62.48
76855;DHT22;66343;44.588;33.450;2023-01-15T17:53:37;7.73;62.71
76855;DHT22;66343;44.588;33.450;2023-01-15T17:56:27;7.77;62.47
76855;DHT22;66343;44.588;33.450;2023-01-15T17:59:39;7.79;62.29
76855;DHT22;66343;44.588;33.450;2023-01-15T18:02:50;7.83;62.08
76855;DHT22;66343;44.588;33.450;2023-01-15T18:05:42;7.82;62.22
76855;DHT22;66343;44.588;33.450;2023-01-15T18:08:33;7.75;62.42
76855;DHT22;66343;44.588;33.450;2023-01-15T18:11:30;7.85;62.05
76855;DHT22;66343;44.588;33.450;2023-01-15T18:14:21;7.79;62.25
76855;DHT22;66343;44.588;33.450;2023-01-15T18:17:10;7.68;62.67
76855;DHT22;66343;44.588;33.450;2023-01-15T18:19:56;7.76;62.47
76855;DHT22;66343;44.588;33.450;2023-01-15T18:22:50;7.83;62.23
76855;DHT22;66343;44.588;33.450;2023-01-15T18:25:51;7.84;62.05
76855;DHT22;66343;44.588;33.450;2023-01-15T18:28:40;7.88;62.03
76855;DHT22;66343;44.588;33.450;2023-01-15T18:31:42;7.92;61.90
76855;DHT22;66343;44.588;33.450;2023-01-15T18:34:31;7.89;62.06
76855;DHT22;66343;44.588;33.450;2023-01-15T18:37:15;7.86;61.96
76855;DHT22;66343;44.588;33.450;2023-01-15T18:40:03;7.94;61.78
76855;DHT22;66343;44.588;33.450;2023-01-15T18:43:00;7.97;61.76
76855;DHT22;66343;44.588;33.450;2023-01-15T18:46:03;7.94;62.06
76855;DHT22;66343;44.588;33.450;2023-01-15T18:49:04;7.96;62.20
76855;DHT22;66343;44.588;33.450;2023-01-15T18:51:36;7.94;62.15
76855;DHT22;66343;44.588;33.450;2023-01-15T18:54:07;7.96;62.37
76855;DHT22;66343;44.588;33.450;2023-01-15T18:56:39;7.83;62.86
76855;DHT22;66343;44.588;33.450;2023-01-15T18:59:29;7.71;63.60
76855;DHT22;66343;44.588;33.450;2023-01-15T19:02:23;7.64;63.87
76855;DHT22;66343;44.588;33.450;2023-01-15T19:05:17;7.69;63.53
76855;DHT22;66343;44.588;33.450;2023-01-15T19:07:48;7.76;63.37
76855;DHT22;66343;44.588;33.450;2023-01-15T19:10:17;7.81;63.29
76855;DHT22;66343;44.588;33.450;2023-01-15T19:12:56;7.83;63.03
76855;DHT22;66343;44.588;33.450;2023-01-15T19:15:51;7.68;63.54
76855;DHT22;66343;44.588;33.450;2023-01-15T19:18:47;7.60;63.95
76855;DHT22;66343;44.588;33.450;2023-01-15T19:21:20;7.57;64.24
76855;DHT22;66343;44.588;33.450;2023-01-15T19:23:51;7.48;64.76
76855;DHT22;66343;44.588;33.450;2023-01-15T19:26:19;7.50;64.66
76855;DHT22;66343;44.588;33.450;2023-01-15T19:28:53;7.44;65.21